Wills Point, Texas
Current Conditions -  °F | °C
As of 3:53 PM on Friday 19 Dec 2014 (Local Time) from KTRL Reporting Station
Overcast Overcast  
Wind Chill: 50°   Ceiling: 800
Heat Index: 50°   Visibility: 7mi
Dew Point: 46°   Wind: 8mph
Humidity: 86%   Direction: 10°N
Pressure: 30.15"   Gusts: NA
Location:  32.71°N, 96.01°W
Report Text: KTRL 192153Z AUTO 01007KT 7SM BKN008 OVC026 10/08 A3015 RMK AO2 SLP210 T01000078
Loading
Personal Weather Stations






























Interactive Weather Map New forecast layout! Learn more

10-Day Weather Forecast

Advertisements
Track Severe Weather on mobile